createdAt,value
2023-02-23T00:01:54.918Z,86.11
2023-02-23T00:04:23.795Z,86.63
2023-02-23T00:06:55.078Z,86.60
2023-02-23T00:09:24.914Z,86.61
2023-02-23T00:11:56.924Z,86.86
2023-02-23T00:14:28.839Z,86.38
2023-02-23T00:16:56.933Z,85.99
2023-02-23T00:19:27.409Z,85.85
2023-02-23T00:21:54.848Z,86.42
2023-02-23T00:24:22.271Z,86.34
2023-02-23T00:26:51.718Z,86.02
2023-02-23T00:29:22.323Z,86.24
2023-02-23T00:31:51.057Z,86.36
2023-02-23T00:34:21.379Z,86.25
2023-02-23T00:36:55.743Z,85.67
2023-02-23T00:39:26.656Z,85.94
2023-02-23T00:41:54.153Z,85.91
2023-02-23T00:44:22.228Z,85.55
2023-02-23T00:46:51.607Z,85.06
2023-02-23T00:49:20.197Z,85.05
2023-02-23T00:51:47.560Z,84.93
2023-02-23T00:54:16.106Z,85.13
2023-02-23T00:56:43.654Z,85.36
2023-02-23T00:59:12.091Z,85.30
2023-02-23T01:01:42.087Z,84.85
2023-02-23T01:04:10.302Z,84.73
2023-02-23T01:06:38.162Z,84.79
2023-02-23T01:09:16.537Z,84.45
2023-02-23T01:11:47.101Z,84.57
2023-02-23T01:14:14.310Z,84.81
2023-02-23T01:16:43.475Z,84.87
2023-02-23T01:19:10.845Z,85.01
2023-02-23T01:21:41.387Z,85.16
2023-02-23T01:24:09.369Z,85.17
2023-02-23T01:26:39.195Z,84.86
2023-02-23T01:29:12.821Z,84.97
2023-02-23T01:31:43.052Z,84.73
2023-02-23T01:34:12.718Z,85.09
2023-02-23T01:36:41.501Z,85.01
2023-02-23T01:39:12.428Z,85.22
2023-02-23T01:41:42.653Z,84.96
2023-02-23T01:44:15.635Z,84.55
2023-02-23T01:46:46.950Z,84.89
2023-02-23T01:49:21.890Z,85.47
2023-02-23T01:52:11.702Z,84.86
2023-02-23T01:54:52.130Z,85.01
2023-02-23T01:57:22.525Z,85.03
2023-02-23T01:59:50.324Z,85.17
2023-02-23T02:02:21.426Z,85.36
2023-02-23T02:04:52.461Z,84.92
2023-02-23T02:07:24.457Z,84.94
2023-02-23T02:10:12.258Z,85.10
2023-02-23T02:12:52.391Z,84.97
2023-02-23T02:15:22.784Z,84.63
2023-02-23T02:18:09.624Z,84.70
2023-02-23T02:20:58.399Z,84.39
2023-02-23T02:24:02.085Z,84.75
2023-02-23T02:26:56.616Z,84.92
2023-02-23T02:29:31.403Z,84.78
2023-02-23T02:31:59.679Z,84.87
2023-02-23T02:34:45.166Z,84.61
2023-02-23T02:37:42.949Z,84.16
2023-02-23T02:40:17.826Z,84.46
2023-02-23T02:43:21.522Z,84.28
2023-02-23T02:46:03.178Z,84.75
2023-02-23T02:48:49.238Z,84.27
2023-02-23T02:51:24.767Z,84.43
2023-02-23T02:54:15.636Z,84.82
2023-02-23T02:56:45.002Z,84.87
2023-02-23T02:59:36.773Z,84.90
2023-02-23T03:02:24.870Z,85.30
2023-02-23T03:05:10.238Z,85.33
2023-02-23T03:08:01.615Z,84.56
2023-02-23T03:11:25.416Z,84.65
2023-02-23T03:14:29.958Z,84.96
2023-02-23T03:17:22.266Z,85.23
2023-02-23T03:20:21.289Z,85.40
2023-02-23T03:23:15.946Z,85.88
2023-02-23T03:26:07.961Z,85.81
2023-02-23T03:29:04.325Z,85.87
2023-02-23T03:32:11.806Z,85.79
2023-02-23T03:35:06.193Z,85.21
2023-02-23T03:38:08.434Z,85.60
2023-02-23T03:40:57.707Z,85.52
2023-02-23T03:43:54.087Z,85.32
2023-02-23T03:46:41.930Z,85.95
2023-02-23T03:49:30.620Z,85.57
2023-02-23T03:52:26.192Z,85.44
2023-02-23T03:55:23.146Z,85.81
2023-02-23T03:58:14.169Z,85.06
2023-02-23T04:01:04.796Z,85.57
2023-02-23T04:03:55.218Z,85.15
2023-02-23T04:06:44.981Z,85.99
2023-02-23T04:09:30.762Z,85.94
2023-02-23T04:12:25.101Z,84.75
2023-02-23T04:15:08.421Z,85.31
2023-02-23T04:17:36.226Z,85.17
2023-02-23T04:20:04.117Z,85.21
2023-02-23T04:22:30.926Z,85.41
2023-02-23T04:24:58.095Z,85.63
2023-02-23T04:27:24.959Z,85.22
2023-02-23T04:29:52.002Z,85.60
2023-02-23T04:32:21.224Z,86.38
2023-02-23T04:34:48.361Z,86.10
2023-02-23T04:37:16.633Z,86.15
2023-02-23T04:39:48.575Z,85.01
2023-02-23T04:42:19.412Z,85.31
2023-02-23T04:44:47.022Z,85.21
2023-02-23T04:47:17.546Z,84.95
2023-02-23T04:49:44.958Z,85.63
2023-02-23T04:52:11.917Z,85.29
2023-02-23T04:54:39.850Z,85.50
2023-02-23T04:57:07.304Z,85.27
2023-02-23T04:59:34.488Z,84.44
2023-02-23T05:02:01.429Z,84.70
2023-02-23T05:04:28.747Z,84.87
2023-02-23T05:06:55.626Z,84.82
2023-02-23T05:09:22.546Z,84.16
2023-02-23T05:11:49.538Z,84.77
2023-02-23T05:14:16.370Z,84.61
2023-02-23T05:16:43.459Z,83.84
2023-02-23T05:19:10.744Z,84.77
2023-02-23T05:21:38.926Z,84.25
2023-02-23T05:24:06.278Z,84.63
2023-02-23T05:26:33.449Z,84.60
2023-02-23T05:29:00.685Z,84.54
2023-02-23T05:31:28.696Z,85.18
2023-02-23T05:33:55.700Z,86.20
2023-02-23T05:36:22.646Z,85.18
2023-02-23T05:38:49.660Z,85.13
2023-02-23T05:41:19.374Z,84.96
2023-02-23T05:43:47.237Z,84.94
2023-02-23T05:46:19.762Z,84.88
2023-02-23T05:48:46.782Z,84.51
2023-02-23T05:51:15.673Z,84.19
2023-02-23T05:53:43.031Z,84.65
2023-02-23T05:56:18.466Z,84.72
2023-02-23T05:58:45.484Z,84.19
2023-02-23T06:01:12.405Z,84.35
2023-02-23T06:03:39.729Z,83.84
2023-02-23T06:06:06.852Z,84.59
2023-02-23T06:08:33.905Z,84.21
2023-02-23T06:11:00.896Z,84.43
2023-02-23T06:13:31.721Z,84.57
2023-02-23T06:15:59.635Z,84.07
2023-02-23T06:18:27.619Z,84.00
2023-02-23T06:20:55.279Z,84.37
2023-02-23T06:23:22.646Z,84.37
2023-02-23T06:25:49.872Z,84.83
2023-02-23T06:28:16.775Z,84.33
2023-02-23T06:30:43.949Z,84.98
2023-02-23T06:33:10.897Z,85.03
2023-02-23T06:35:38.481Z,85.06
2023-02-23T06:38:06.506Z,84.81
2023-02-23T06:40:33.730Z,84.55
2023-02-23T06:43:00.801Z,85.31
2023-02-23T06:45:27.678Z,85.27
2023-02-23T06:47:54.524Z,85.17
2023-02-23T06:50:21.560Z,85.09
2023-02-23T06:52:49.043Z,84.69
2023-02-23T06:55:17.104Z,84.43
2023-02-23T06:57:44.378Z,85.22
2023-02-23T07:00:18.128Z,85.21
2023-02-23T07:02:46.549Z,84.98
2023-02-23T07:05:13.568Z,85.16
2023-02-23T07:07:40.536Z,85.34
2023-02-23T07:10:10.127Z,84.67
2023-02-23T07:12:36.914Z,85.45
2023-02-23T07:15:04.643Z,84.72
2023-02-23T07:17:31.483Z,85.08
2023-02-23T07:19:58.692Z,85.53
2023-02-23T07:22:30.704Z,85.52
2023-02-23T07:24:58.166Z,85.37
2023-02-23T07:27:25.636Z,84.73
2023-02-23T07:29:52.693Z,84.55
2023-02-23T07:32:20.012Z,84.25
2023-02-23T07:34:47.953Z,84.90
2023-02-23T07:37:15.028Z,84.64
2023-02-23T07:39:45.080Z,84.71
2023-02-23T07:42:11.952Z,85.02
2023-02-23T07:44:39.739Z,84.51
2023-02-23T07:47:07.520Z,84.98
2023-02-23T07:49:34.609Z,84.17
2023-02-23T07:52:01.414Z,84.67
2023-02-23T07:54:28.254Z,84.34
2023-02-23T07:56:55.272Z,84.02
2023-02-23T07:59:22.444Z,83.77
2023-02-23T08:01:49.317Z,83.96
2023-02-23T08:04:17.369Z,83.94
2023-02-23T08:06:44.721Z,83.82
2023-02-23T08:09:12.277Z,84.31
2023-02-23T08:11:42.095Z,83.56
2023-02-23T08:14:10.872Z,84.07
2023-02-23T08:16:37.936Z,84.30
2023-02-23T08:19:04.905Z,83.15
2023-02-23T08:21:31.883Z,83.46
2023-02-23T08:23:59.208Z,83.74
2023-02-23T08:26:26.455Z,83.46
2023-02-23T08:28:54.865Z,83.73
2023-02-23T08:31:24.543Z,82.93
2023-02-23T08:33:52.558Z,83.53
2023-02-23T08:36:21.076Z,84.11
2023-02-23T08:38:48.552Z,83.66
2023-02-23T08:41:17.760Z,83.21
2023-02-23T08:43:44.903Z,83.52
2023-02-23T08:46:12.252Z,83.57
2023-02-23T08:48:40.831Z,83.83
2023-02-23T08:51:08.967Z,83.41
2023-02-23T08:53:36.678Z,84.10
2023-02-23T08:56:06.580Z,84.38
2023-02-23T08:58:34.971Z,84.05
2023-02-23T09:01:02.742Z,85.15
2023-02-23T09:03:30.913Z,84.72
2023-02-23T09:06:08.820Z,84.78
2023-02-23T09:08:36.178Z,83.67
2023-02-23T09:11:02.982Z,83.89
2023-02-23T09:13:29.906Z,82.74
2023-02-23T09:15:57.129Z,82.78
2023-02-23T09:18:24.312Z,82.04
2023-02-23T09:20:51.713Z,81.38
2023-02-23T09:23:18.810Z,81.84
2023-02-23T09:25:45.917Z,81.42
2023-02-23T09:28:18.127Z,80.98
2023-02-23T09:30:46.973Z,80.79
2023-02-23T09:33:14.775Z,81.15
2023-02-23T09:35:44.702Z,81.64
2023-02-23T09:38:11.485Z,81.58
2023-02-23T09:40:50.415Z,81.44
2023-02-23T09:43:50.562Z,81.26
2023-02-23T09:46:47.985Z,81.20
2023-02-23T09:49:20.161Z,79.50
2023-02-23T09:51:54.976Z,80.76
2023-02-23T09:54:25.364Z,80.95
2023-02-23T09:56:53.379Z,80.26
2023-02-23T09:59:22.561Z,79.92
2023-02-23T10:01:49.389Z,80.49
2023-02-23T10:04:29.238Z,81.12
2023-02-23T10:07:14.466Z,80.34
2023-02-23T10:10:00.859Z,81.06
2023-02-23T10:12:47.581Z,81.68
2023-02-23T10:15:19.770Z,80.41
2023-02-23T10:18:03.729Z,80.00
2023-02-23T10:21:01.810Z,79.56
2023-02-23T10:23:34.687Z,79.12
2023-02-23T10:26:03.717Z,78.91
2023-02-23T10:28:36.890Z,78.26
2023-02-23T10:31:25.578Z,76.29
2023-02-23T10:33:55.426Z,73.70
2023-02-23T10:36:51.441Z,72.14
2023-02-23T10:39:18.780Z,71.12
2023-02-23T10:41:45.861Z,70.83
2023-02-23T10:44:39.113Z,69.82
2023-02-23T10:47:15.950Z,69.84
2023-02-23T10:49:52.316Z,69.28
2023-02-23T10:52:32.942Z,70.37
2023-02-23T10:55:00.719Z,69.83
2023-02-23T10:57:30.944Z,68.89
2023-02-23T11:00:17.008Z,69.24
2023-02-23T11:02:48.361Z,68.31
2023-02-23T11:05:47.429Z,68.18
2023-02-23T11:08:22.591Z,67.73
2023-02-23T11:11:31.932Z,67.38
2023-02-23T11:13:58.996Z,67.03
2023-02-23T11:16:39.419Z,67.09
2023-02-23T11:19:19.710Z,66.38
2023-02-23T11:21:52.751Z,66.76
2023-02-23T11:24:33.284Z,66.64
2023-02-23T11:27:04.003Z,66.89
2023-02-23T11:29:34.007Z,67.19
2023-02-23T11:32:10.819Z,66.66
2023-02-23T11:34:41.735Z,66.88
2023-02-23T11:37:25.542Z,66.82
2023-02-23T11:40:00.875Z,66.49
2023-02-23T11:42:35.287Z,66.58
2023-02-23T11:45:15.806Z,66.29
2023-02-23T11:47:49.515Z,67.25
2023-02-23T11:50:29.999Z,66.90
2023-02-23T11:53:03.351Z,67.11
2023-02-23T11:55:34.314Z,67.38
2023-02-23T11:58:32.857Z,67.36
2023-02-23T12:01:12.244Z,68.13
2023-02-23T12:03:47.973Z,67.91
2023-02-23T12:06:40.287Z,67.85
2023-02-23T12:09:29.818Z,68.87
2023-02-23T12:12:38.469Z,69.76
2023-02-23T12:15:16.942Z,69.68
2023-02-23T12:17:54.417Z,69.21
2023-02-23T12:20:31.206Z,69.51
2023-02-23T12:23:06.676Z,70.08
2023-02-23T12:25:51.259Z,69.73
2023-02-23T12:28:30.383Z,70.82
2023-02-23T12:31:11.517Z,70.76
2023-02-23T12:33:50.423Z,71.94
2023-02-23T12:36:26.456Z,71.55
2023-02-23T12:38:59.528Z,71.36
2023-02-23T12:41:51.704Z,69.99
2023-02-23T12:44:34.389Z,69.75
2023-02-23T12:47:20.263Z,70.28
2023-02-23T12:49:57.728Z,70.98
2023-02-23T12:52:38.943Z,71.56
2023-02-23T12:55:12.370Z,71.48
2023-02-23T12:57:45.984Z,72.01
2023-02-23T13:00:34.914Z,71.58
2023-02-23T13:03:17.227Z,72.12
2023-02-23T13:06:20.913Z,72.17
2023-02-23T13:09:10.207Z,71.50
2023-02-23T13:11:42.760Z,71.55
2023-02-23T13:14:22.912Z,71.16
2023-02-23T13:17:25.842Z,69.56
2023-02-23T13:20:11.988Z,71.37
2023-02-23T13:22:50.974Z,71.08
2023-02-23T13:25:41.073Z,71.61
2023-02-23T13:28:18.248Z,71.99
2023-02-23T13:30:48.061Z,71.43
2023-02-23T13:33:34.961Z,72.56
2023-02-23T13:36:07.027Z,72.83
2023-02-23T13:38:47.542Z,73.11
2023-02-23T13:41:31.033Z,72.91
2023-02-23T13:44:22.884Z,72.77
2023-02-23T13:46:56.749Z,73.16
2023-02-23T13:49:42.388Z,73.06
2023-02-23T13:52:40.072Z,73.00
2023-02-23T13:55:25.848Z,72.92
2023-02-23T13:58:03.748Z,72.30
2023-02-23T14:00:30.988Z,72.28
2023-02-23T14:03:02.482Z,71.79
2023-02-23T14:05:30.424Z,71.48
2023-02-23T14:08:06.078Z,71.55
2023-02-23T14:10:42.227Z,72.89
2023-02-23T14:13:15.995Z,72.04
2023-02-23T14:15:48.720Z,71.74
2023-02-23T14:18:24.829Z,72.38
2023-02-23T14:20:55.739Z,72.53
2023-02-23T14:23:22.771Z,71.87
2023-02-23T14:26:31.501Z,71.30
2023-02-23T14:29:24.969Z,71.38
2023-02-23T14:32:13.281Z,72.89
2023-02-23T14:34:57.374Z,73.38
2023-02-23T14:37:43.487Z,73.94
2023-02-23T14:40:23.074Z,74.26
2023-02-23T14:42:51.997Z,74.10
2023-02-23T14:45:31.780Z,74.83
2023-02-23T14:48:25.530Z,74.38
2023-02-23T14:50:52.417Z,74.95
2023-02-23T14:53:22.471Z,73.76
2023-02-23T14:55:50.092Z,74.20
2023-02-23T14:58:35.373Z,73.53
2023-02-23T15:01:05.257Z,74.88
2023-02-23T15:03:32.161Z,75.65
2023-02-23T15:06:02.288Z,75.64
2023-02-23T15:08:31.544Z,76.45
2023-02-23T15:11:15.204Z,77.08
2023-02-23T15:13:51.314Z,76.96
2023-02-23T15:16:18.175Z,77.72
2023-02-23T15:18:45.242Z,77.73
2023-02-23T15:21:17.178Z,78.27
2023-02-23T15:23:54.531Z,78.45
2023-02-23T15:26:32.233Z,78.05
2023-02-23T15:29:11.189Z,77.82
2023-02-23T15:31:50.312Z,77.89
2023-02-23T15:34:26.587Z,77.91
2023-02-23T15:37:00.192Z,78.39
2023-02-23T15:39:46.930Z,79.00
2023-02-23T15:42:22.399Z,79.14
2023-02-23T15:45:00.385Z,79.84
2023-02-23T15:47:34.324Z,80.73
2023-02-23T15:50:15.309Z,81.06
2023-02-23T15:52:54.294Z,81.23
2023-02-23T15:55:26.182Z,80.12
2023-02-23T15:57:54.960Z,80.45
2023-02-23T16:00:43.188Z,79.97
2023-02-23T16:03:45.662Z,80.23
2023-02-23T16:06:27.473Z,79.63
2023-02-23T16:09:22.318Z,78.96
2023-02-23T16:12:01.994Z,78.08
2023-02-23T16:14:36.146Z,77.54
2023-02-23T16:17:11.230Z,77.10
2023-02-23T16:19:41.723Z,76.95
2023-02-23T16:22:20.366Z,77.25
2023-02-23T16:24:59.105Z,76.77
2023-02-23T16:27:28.270Z,77.36
2023-02-23T16:30:00.864Z,77.46
2023-02-23T16:32:37.375Z,77.09
2023-02-23T16:35:47.193Z,76.25
2023-02-23T16:38:27.468Z,75.58
2023-02-23T16:40:54.601Z,75.25
2023-02-23T16:43:24.880Z,74.97
2023-02-23T16:45:52.125Z,75.23
2023-02-23T16:48:19.415Z,74.32
2023-02-23T16:50:46.362Z,75.03
2023-02-23T16:53:13.441Z,75.25
2023-02-23T16:55:47.446Z,75.42
2023-02-23T16:58:20.942Z,75.25
2023-02-23T17:00:48.474Z,75.23
2023-02-23T17:03:31.388Z,75.06
2023-02-23T17:06:02.164Z,74.87
2023-02-23T17:08:35.766Z,74.28
2023-02-23T17:11:05.222Z,74.41
2023-02-23T17:13:33.515Z,73.98
2023-02-23T17:16:03.838Z,73.79
2023-02-23T17:18:33.099Z,73.54
2023-02-23T17:21:04.029Z,74.11
2023-02-23T17:23:39.194Z,73.60
2023-02-23T17:26:08.076Z,74.21
2023-02-23T17:28:35.365Z,74.35
2023-02-23T17:31:03.718Z,74.09
2023-02-23T17:33:33.919Z,73.60
2023-02-23T17:36:02.768Z,73.36
2023-02-23T17:38:34.170Z,73.80
2023-02-23T17:41:06.954Z,73.84
2023-02-23T17:43:34.879Z,73.81
2023-02-23T17:46:02.205Z,73.49
2023-02-23T17:48:30.633Z,73.98
2023-02-23T17:51:06.448Z,74.86
2023-02-23T17:53:33.407Z,74.80
2023-02-23T17:56:00.463Z,75.64
2023-02-23T17:58:27.496Z,75.77
2023-02-23T18:00:58.671Z,76.49
2023-02-23T18:03:32.183Z,75.87
2023-02-23T18:06:01.240Z,75.34
2023-02-23T18:08:28.227Z,75.98
2023-02-23T18:10:56.156Z,77.01
2023-02-23T18:13:24.140Z,76.04
2023-02-23T18:15:54.448Z,75.94
2023-02-23T18:18:24.069Z,75.69
2023-02-23T18:20:57.479Z,75.32
2023-02-23T18:23:28.938Z,75.62
2023-02-23T18:25:56.045Z,74.84
2023-02-23T18:28:23.377Z,74.49
2023-02-23T18:30:57.618Z,73.86
2023-02-23T18:33:24.671Z,75.01
2023-02-23T18:35:51.976Z,75.92
2023-02-23T18:38:19.057Z,76.51
2023-02-23T18:40:46.244Z,76.20
2023-02-23T18:43:14.684Z,76.35
2023-02-23T18:45:41.494Z,76.82
2023-02-23T18:48:11.065Z,76.96
2023-02-23T18:50:59.657Z,77.28
2023-02-23T18:53:26.425Z,77.39
2023-02-23T18:55:53.457Z,77.28
2023-02-23T18:58:20.281Z,77.01
2023-02-23T19:00:47.859Z,78.05
2023-02-23T19:03:15.187Z,77.85
2023-02-23T19:05:54.242Z,77.32
2023-02-23T19:08:21.605Z,77.25
2023-02-23T19:10:49.892Z,78.13
2023-02-23T19:13:18.455Z,78.75
2023-02-23T19:15:45.242Z,78.66
2023-02-23T19:18:12.079Z,79.38
2023-02-23T19:20:39.163Z,78.54
2023-02-23T19:23:06.141Z,78.33
2023-02-23T19:25:33.354Z,79.20
2023-02-23T19:28:01.747Z,78.74
2023-02-23T19:30:29.500Z,78.57
2023-02-23T19:32:58.532Z,79.25
2023-02-23T19:35:26.939Z,78.69
2023-02-23T19:37:54.579Z,79.21
2023-02-23T19:40:24.191Z,78.16
2023-02-23T19:42:52.975Z,78.85
2023-02-23T19:45:22.048Z,78.26
2023-02-23T19:47:51.871Z,79.18
2023-02-23T19:50:20.621Z,78.05
2023-02-23T19:52:48.554Z,76.84
2023-02-23T19:55:16.179Z,76.73
2023-02-23T19:57:43.978Z,76.02
2023-02-23T20:00:12.523Z,76.37
2023-02-23T20:02:44.288Z,75.97
2023-02-23T20:05:16.430Z,76.06
2023-02-23T20:07:44.215Z,74.65
2023-02-23T20:10:16.335Z,74.32
2023-02-23T20:12:44.017Z,74.20
2023-02-23T20:15:11.150Z,74.41
2023-02-23T20:17:40.412Z,74.24
2023-02-23T20:20:10.628Z,73.87
2023-02-23T20:22:41.548Z,74.19
2023-02-23T20:25:09.119Z,73.96
2023-02-23T20:27:36.843Z,73.93
2023-02-23T20:30:04.496Z,74.34
2023-02-23T20:32:31.630Z,74.17
2023-02-23T20:35:01.197Z,74.39
2023-02-23T20:37:28.317Z,73.64
2023-02-23T20:39:55.160Z,73.47
2023-02-23T20:42:22.146Z,73.74
2023-02-23T20:44:49.146Z,73.49
2023-02-23T20:47:15.979Z,73.02
2023-02-23T20:49:42.985Z,72.56
2023-02-23T20:52:09.996Z,72.47
2023-02-23T20:54:37.023Z,71.86
2023-02-23T20:57:07.953Z,71.57
2023-02-23T20:59:36.683Z,70.85
2023-02-23T21:02:06.190Z,70.10
2023-02-23T21:04:38.372Z,71.16
2023-02-23T21:07:05.667Z,70.53
2023-02-23T21:09:33.124Z,70.52
2023-02-23T21:11:59.959Z,69.30
2023-02-23T21:14:27.092Z,70.29
2023-02-23T21:16:57.346Z,69.38
2023-02-23T21:19:24.736Z,69.64
2023-02-23T21:21:58.312Z,70.57
2023-02-23T21:24:26.454Z,70.75
2023-02-23T21:26:53.420Z,70.74
2023-02-23T21:29:24.071Z,70.45
2023-02-23T21:31:54.402Z,68.75
2023-02-23T21:34:21.471Z,68.98
2023-02-23T21:36:51.567Z,68.68
2023-02-23T21:39:18.324Z,68.70
2023-02-23T21:41:45.839Z,68.44
2023-02-23T21:44:12.762Z,68.57
2023-02-23T21:46:40.678Z,68.13
2023-02-23T21:49:09.978Z,66.95
2023-02-23T21:51:36.899Z,66.95
2023-02-23T21:54:04.438Z,66.05
2023-02-23T21:56:32.973Z,67.44
2023-02-23T21:59:00.024Z,66.72
2023-02-23T22:01:29.966Z,65.97
2023-02-23T22:03:57.954Z,65.78
2023-02-23T22:06:27.866Z,65.60
2023-02-23T22:08:55.397Z,66.68
2023-02-23T22:11:27.569Z,66.31
2023-02-23T22:14:00.059Z,67.45
2023-02-23T22:16:38.577Z,66.38
2023-02-23T22:19:06.740Z,66.57
2023-02-23T22:21:38.954Z,66.82
2023-02-23T22:24:07.341Z,68.85
2023-02-23T22:26:37.620Z,69.18
2023-02-23T22:29:06.520Z,69.14
2023-02-23T22:31:33.742Z,69.12
2023-02-23T22:34:00.623Z,69.22
2023-02-23T22:36:28.052Z,70.23
2023-02-23T22:39:01.147Z,70.09
2023-02-23T22:41:29.793Z,69.78
2023-02-23T22:43:58.094Z,69.88
2023-02-23T22:46:25.760Z,70.41
2023-02-23T22:48:52.873Z,69.96
2023-02-23T22:51:20.456Z,70.26
2023-02-23T22:53:47.637Z,70.28
2023-02-23T22:56:14.917Z,70.97
2023-02-23T22:58:42.497Z,70.06
2023-02-23T23:01:11.676Z,71.46
2023-02-23T23:03:46.211Z,71.88
2023-02-23T23:06:23.274Z,72.99
2023-02-23T23:08:55.354Z,73.01
2023-02-23T23:11:27.088Z,73.13
2023-02-23T23:14:02.020Z,74.00
2023-02-23T23:16:35.372Z,74.24
2023-02-23T23:19:12.454Z,74.25
2023-02-23T23:21:42.109Z,74.58
2023-02-23T23:24:13.640Z,74.58
2023-02-23T23:26:41.320Z,74.55
2023-02-23T23:29:11.493Z,74.87
2023-02-23T23:31:39.840Z,74.60
2023-02-23T23:34:10.440Z,74.33
2023-02-23T23:36:46.317Z,74.05
2023-02-23T23:39:18.930Z,74.16
2023-02-23T23:41:49.993Z,74.93
2023-02-23T23:44:19.560Z,74.37
2023-02-23T23:46:47.625Z,74.42
2023-02-23T23:49:19.823Z,74.01
2023-02-23T23:51:51.965Z,74.53
2023-02-23T23:54:23.639Z,74.47
2023-02-23T23:56:51.225Z,74.42
2023-02-23T23:59:22.088Z,74.06
